Time;durP1;ratioP1;P1;durP2;ratioP2;P2;SDS_P1;SDS_P2;PMS_P1;PMS_P2;Temp;Humidity;BMP_temperature;BMP_pressure;BME280_temperature;BME280_humidity;BME280_pressure;Samples;Min_cycle;Max_cycle;Signal;HPM_P1;HPM_P2
2021/07/19 00:00:18;;;;;;;2.30;1.70;;;24.30;58.60;;;;;;4958154;28;20030;-83
2021/07/19 00:02:45;;;;;;;2.40;1.90;;;24.20;58.60;;;;;;4974183;28;20077;-82
2021/07/19 00:05:14;;;;;;;2.75;1.80;;;24.20;58.60;;;;;;4957694;28;20428;-83
2021/07/19 00:07:40;;;;;;;2.80;1.90;;;24.20;58.70;;;;;;4957620;28;20042;-82
2021/07/19 00:10:09;;;;;;;2.72;2.03;;;24.20;58.70;;;;;;4957339;28;20085;-81
2021/07/19 00:12:35;;;;;;;3.10;2.00;;;24.20;58.80;;;;;;4957241;28;20089;-82
2021/07/19 00:15:02;;;;;;;3.00;2.08;;;24.10;58.90;;;;;;4957763;28;20035;-81
2021/07/19 00:17:27;;;;;;;3.30;2.10;;;24.00;58.70;;;;;;4973521;28;20122;-81
2021/07/19 00:19:53;;;;;;;3.22;2.10;;;24.00;58.80;;;;;;4957413;28;20142;-81
2021/07/19 00:22:20;;;;;;;3.40;2.28;;;24.00;58.80;;;;;;4958931;28;20061;-81
2021/07/19 00:24:46;;;;;;;3.17;2.10;;;24.00;58.80;;;;;;4958087;28;20035;-82
2021/07/19 00:27:12;;;;;;;3.22;2.00;;;23.90;58.80;;;;;;4959145;28;20053;-82
2021/07/19 00:29:40;;;;;;;2.83;2.20;;;23.90;58.90;;;;;;4958087;28;20018;-82
2021/07/19 00:32:07;;;;;;;2.65;2.05;;;23.90;58.90;;;;;;4974372;28;20031;-82
2021/07/19 00:34:35;;;;;;;3.65;2.30;;;23.80;58.90;;;;;;4980663;28;20058;-81
2021/07/19 00:37:02;;;;;;;3.67;2.20;;;23.80;58.90;;;;;;4969906;28;20035;-82
2021/07/19 00:39:28;;;;;;;3.97;2.35;;;23.80;58.90;;;;;;4969261;28;20043;-82
2021/07/19 00:41:54;;;;;;;4.25;2.20;;;23.70;58.90;;;;;;4951116;28;20023;-82
2021/07/19 00:44:20;;;;;;;4.03;2.00;;;23.70;59.00;;;;;;4981794;28;20069;-83
2021/07/19 00:46:48;;;;;;;3.72;2.20;;;23.70;59.00;;;;;;4961639;28;20074;-82
2021/07/19 00:49:14;;;;;;;3.42;2.20;;;23.70;59.10;;;;;;4977149;28;20115;-82
2021/07/19 00:51:42;;;;;;;2.65;1.92;;;23.60;59.20;;;;;;4960854;28;20077;-82
2021/07/19 00:54:14;;;;;;;4.47;2.63;;;23.60;59.20;;;;;;4977559;28;20027;-81
2021/07/19 00:56:42;;;;;;;3.28;2.33;;;23.50;59.10;;;;;;4960817;28;20037;-82
2021/07/19 00:59:09;;;;;;;3.47;2.30;;;23.50;59.20;;;;;;4960992;28;20030;-83
2021/07/19 01:01:38;;;;;;;3.47;2.45;;;23.50;59.20;;;;;;4960594;28;20486;-82
2021/07/19 01:04:08;;;;;;;3.05;2.10;;;23.40;59.20;;;;;;4976835;28;20035;-82
2021/07/19 01:06:37;;;;;;;3.47;2.30;;;23.40;59.30;;;;;;4961239;28;20073;-82
2021/07/19 01:09:05;;;;;;;3.25;2.25;;;23.40;59.30;;;;;;4960544;28;20043;-82
2021/07/19 01:11:32;;;;;;;3.00;2.08;;;23.40;59.30;;;;;;4960320;28;20380;-81
2021/07/19 01:13:59;;;;;;;3.03;2.08;;;23.30;59.30;;;;;;4960913;28;20038;-82
2021/07/19 01:16:25;;;;;;;3.47;2.30;;;23.30;59.30;;;;;;4976543;28;20027;-82
2021/07/19 01:18:51;;;;;;;3.22;2.38;;;23.20;60.00;;;;;;4960531;28;20049;-82
2021/07/19 01:21:57;;;;;;;3.55;2.28;;;23.20;59.40;;;;;;4976280;28;20055;-82
2021/07/19 01:24:38;;;;;;;3.55;2.60;;;23.20;59.50;;;;;;4960283;28;20114;-82
2021/07/19 01:27:36;;;;;;;2.47;1.95;;;23.10;59.50;;;;;;4960530;28;20051;-82
2021/07/19 01:30:06;;;;;;;3.00;2.22;;;23.10;59.60;;;;;;4975954;28;20031;-81
2021/07/19 01:32:38;;;;;;;3.60;2.33;;;23.10;59.50;;;;;;4977608;28;20115;-82
2021/07/19 01:35:09;;;;;;;3.58;2.50;;;23.10;59.60;;;;;;4978015;28;20106;-82
2021/07/19 01:37:37;;;;;;;3.88;2.22;;;23.00;59.60;;;;;;4975721;28;20046;-80
2021/07/19 01:40:10;;;;;;;3.80;2.38;;;23.00;59.60;;;;;;4961301;28;20031;-82
2021/07/19 01:42:39;;;;;;;3.47;2.70;;;23.00;59.70;;;;;;4959678;28;20108;-81
2021/07/19 01:45:07;;;;;;;3.58;2.13;;;23.00;59.70;;;;;;4975302;28;20022;-81
2021/07/19 01:47:36;;;;;;;3.25;2.35;;;22.90;59.70;;;;;;4959416;28;20039;-82
2021/07/19 01:50:05;;;;;;;3.20;2.47;;;22.90;59.70;;;;;;4975603;28;20034;-81
2021/07/19 01:52:50;;;;;;;4.05;2.45;;;22.80;59.70;;;;;;4975157;28;20034;-82
2021/07/19 01:55:17;;;;;;;3.72;2.33;;;22.80;59.80;;;;;;4974877;28;20043;-81
2021/07/19 01:57:43;;;;;;;3.72;2.42;;;22.80;59.80;;;;;;4959344;28;20399;-82
2021/07/19 02:00:11;;;;;;;3.35;2.20;;;22.80;59.90;;;;;;4975422;28;20038;-81
2021/07/19 02:02:40;;;;;;;3.10;2.20;;;22.70;59.90;;;;;;4960147;28;20039;-81
2021/07/19 02:05:13;;;;;;;3.42;2.28;;;22.70;60.00;;;;;;4959355;28;20090;-81
2021/07/19 02:07:44;;;;;;;3.60;2.10;;;22.70;60.00;;;;;;4959523;28;20030;-81
2021/07/19 02:10:16;;;;;;;3.13;2.30;;;22.60;59.90;;;;;;4975609;28;20042;-82
2021/07/19 02:12:55;;;;;;;3.90;2.47;;;22.60;60.00;;;;;;4952728;28;20030;-81
2021/07/19 02:15:23;;;;;;;3.33;2.25;;;22.60;60.00;;;;;;4975051;28;20499;-81
2021/07/19 02:17:56;;;;;;;4.60;2.50;;;22.60;60.10;;;;;;4959391;28;20051;-82
2021/07/19 02:20:24;;;;;;;3.88;2.58;;;22.50;60.10;;;;;;4959031;28;20388;-81
2021/07/19 02:22:51;;;;;;;4.22;2.80;;;22.40;60.10;;;;;;4959041;28;20039;-81
2021/07/19 02:25:38;;;;;;;4.82;2.50;;;22.50;60.20;;;;;;4976285;28;20404;-82
2021/07/19 02:28:07;;;;;;;3.20;2.25;;;22.40;60.10;;;;;;4959044;28;20065;-84
2021/07/19 02:30:34;;;;;;;3.05;2.08;;;22.40;60.20;;;;;;4958786;28;20050;-81
2021/07/19 02:33:03;;;;;;;3.63;2.40;;;22.40;60.30;;;;;;4958901;28;20043;-83
2021/07/19 02:35:34;;;;;;;3.45;2.38;;;22.30;60.50;;;;;;4943469;28;20061;-83
2021/07/19 02:38:07;;;;;;;3.13;2.28;;;22.30;60.40;;;;;;4958375;28;20395;-83
2021/07/19 02:41:00;;;;;;;3.72;2.50;;;22.20;60.30;;;;;;4974808;28;20035;-83
2021/07/19 02:43:29;;;;;;;2.95;1.95;;;22.20;60.30;;;;;;4959582;28;20134;-83
2021/07/19 02:45:59;;;;;;;3.88;2.58;;;22.20;60.40;;;;;;4958072;28;20030;-83
2021/07/19 02:48:29;;;;;;;3.88;2.30;;;22.20;60.50;;;;;;4958358;28;20035;-82
2021/07/19 02:50:57;;;;;;;3.67;2.40;;;22.10;60.50;;;;;;4974437;28;20482;-82
2021/07/19 02:53:28;;;;;;;3.78;2.47;;;22.10;60.60;;;;;;4975949;28;20085;-84
2021/07/19 02:55:57;;;;;;;3.15;2.30;;;22.10;60.60;;;;;;4958523;28;20435;-83
2021/07/19 02:58:25;;;;;;;4.30;2.42;;;22.10;60.60;;;;;;4973963;28;20043;-83
2021/07/19 03:00:53;;;;;;;4.38;2.45;;;22.00;60.60;;;;;;4958524;28;20027;-83
2021/07/19 03:03:26;;;;;;;3.25;2.22;;;22.00;60.70;;;;;;4974233;28;20125;-83
2021/07/19 03:06:01;;;;;;;3.50;2.38;;;22.00;60.70;;;;;;4958251;28;20066;-83
2021/07/19 03:08:34;;;;;;;3.85;2.38;;;21.90;60.80;;;;;;4958162;28;20035;-82
2021/07/19 03:11:09;;;;;;;3.50;2.25;;;21.90;60.80;;;;;;4958145;28;20030;-82
2021/07/19 03:13:37;;;;;;;3.30;2.05;;;21.90;60.80;;;;;;4957932;28;20035;-83
2021/07/19 03:16:06;;;;;;;3.22;2.22;;;21.90;60.90;;;;;;4958282;28;20464;-84
2021/07/19 03:18:37;;;;;;;3.55;2.30;;;21.90;60.90;;;;;;4974075;28;20150;-83
2021/07/19 03:21:05;;;;;;;3.47;2.10;;;21.80;61.00;;;;;;4942562;28;20161;-85
2021/07/19 03:23:35;;;;;;;3.05;2.38;;;21.80;61.00;;;;;;4974393;28;20495;-83
2021/07/19 03:26:02;;;;;;;3.20;2.00;;;21.80;61.00;;;;;;4957447;28;20031;-84
2021/07/19 03:28:29;;;;;;;3.38;2.38;;;21.80;61.00;;;;;;4973882;28;20113;-82
2021/07/19 03:30:59;;;;;;;2.78;2.13;;;21.70;61.00;;;;;;4942147;28;20027;-83
2021/07/19 03:33:25;;;;;;;3.17;2.35;;;21.70;61.10;;;;;;4973997;28;20035;-83
2021/07/19 03:35:54;;;;;;;3.20;2.25;;;21.70;61.20;;;;;;4957555;28;20054;-83
2021/07/19 03:38:22;;;;;;;3.00;2.20;;;21.60;61.20;;;;;;4958047;28;20038;-83
2021/07/19 03:41:07;;;;;;;3.58;2.10;;;21.70;61.20;;;;;;4961405;28;20124;-83
2021/07/19 03:43:36;;;;;;;4.35;2.40;;;21.60;61.20;;;;;;4974825;28;20048;-82
2021/07/19 03:46:02;;;;;;;3.60;2.40;;;21.60;61.30;;;;;;4957977;28;20029;-83
2021/07/19 03:48:30;;;;;;;3.33;2.30;;;21.60;61.30;;;;;;4958560;28;20452;-83
2021/07/19 03:50:56;;;;;;;4.15;2.28;;;21.50;61.30;;;;;;4958525;28;20420;-82
2021/07/19 03:53:24;;;;;;;3.10;2.10;;;21.50;61.30;;;;;;4957745;28;20123;-82
2021/07/19 03:56:00;;;;;;;2.88;2.15;;;21.50;61.40;;;;;;4974483;28;20149;-83
2021/07/19 03:58:30;;;;;;;2.67;1.90;;;21.40;61.40;;;;;;4957622;28;20050;-82
2021/07/19 04:00:58;;;;;;;3.53;2.35;;;21.40;61.40;;;;;;4957731;28;20137;-83
2021/07/19 04:03:31;;;;;;;3.72;2.30;;;21.40;61.50;;;;;;4958007;28;20039;-82
2021/07/19 04:06:00;;;;;;;2.75;2.00;;;21.40;61.60;;;;;;4974421;28;20059;-83
2021/07/19 04:08:35;;;;;;;3.47;2.30;;;21.40;61.60;;;;;;4973484;28;20180;-83
2021/07/19 04:11:01;;;;;;;3.20;2.13;;;21.30;61.60;;;;;;4974562;28;20031;-83
2021/07/19 04:13:30;;;;;;;3.22;2.17;;;21.30;61.60;;;;;;4957270;28;20058;-83
2021/07/19 04:15:59;;;;;;;4.38;2.78;;;21.30;61.70;;;;;;4958414;28;20039;-83
2021/07/19 04:18:25;;;;;;;3.03;2.20;;;21.30;61.70;;;;;;4977310;28;20042;-83
2021/07/19 04:20:54;;;;;;;3.55;2.33;;;21.30;61.80;;;;;;4961011;28;20055;-83
2021/07/19 04:23:22;;;;;;;3.05;2.10;;;21.20;61.80;;;;;;4960882;28;20547;-81
2021/07/19 04:25:54;;;;;;;3.83;2.60;;;21.20;61.80;;;;;;4962007;28;20472;-82
2021/07/19 04:28:21;;;;;;;3.35;2.42;;;21.20;61.80;;;;;;4960890;28;20034;-83
2021/07/19 04:30:50;;;;;;;3.63;2.30;;;21.20;61.90;;;;;;4961176;28;20027;-83
2021/07/19 04:33:19;;;;;;;2.83;2.20;;;21.10;61.90;;;;;;4960981;28;20034;-83
2021/07/19 04:35:46;;;;;;;3.33;2.25;;;21.10;61.90;;;;;;4977113;28;20392;-83
2021/07/19 04:38:16;;;;;;;3.35;2.28;;;21.10;62.00;;;;;;4960737;28;20090;-82
2021/07/19 04:40:56;;;;;;;2.35;1.90;;;21.10;62.00;;;;;;4977034;28;20101;-83
2021/07/19 04:43:23;;;;;;;3.10;2.20;;;21.10;62.10;;;;;;4960850;28;20041;-82
2021/07/19 04:45:50;;;;;;;3.65;2.30;;;21.00;62.00;;;;;;4944911;28;20380;-83
2021/07/19 04:48:17;;;;;;;3.30;2.03;;;21.00;62.10;;;;;;4960706;28;20030;-82
2021/07/19 04:50:43;;;;;;;3.65;2.30;;;21.00;62.10;;;;;;4960439;28;20034;-82
2021/07/19 04:53:10;;;;;;;2.58;2.10;;;21.00;62.20;;;;;;4976713;28;20057;-83
2021/07/19 04:55:40;;;;;;;3.53;2.35;;;21.00;62.20;;;;;;4960477;28;20479;-82
2021/07/19 04:58:07;;;;;;;3.65;2.25;;;21.00;62.30;;;;;;4977260;28;20043;-82
2021/07/19 05:00:35;;;;;;;2.97;2.20;;;21.00;62.40;;;;;;4976700;28;20058;-83
2021/07/19 05:03:03;;;;;;;3.03;2.28;;;20.90;62.40;;;;;;4977245;28;20019;-83
2021/07/19 05:05:31;;;;;;;3.22;2.10;;;20.90;62.40;;;;;;4961531;28;20037;-83
2021/07/19 05:07:59;;;;;;;3.10;2.38;;;20.90;62.40;;;;;;4960823;28;20031;-84
2021/07/19 05:10:26;;;;;;;4.18;2.20;;;20.90;62.40;;;;;;4945387;28;20383;-83
2021/07/19 05:12:54;;;;;;;3.22;1.92;;;20.90;62.50;;;;;;4976908;28;20041;-83
2021/07/19 05:15:20;;;;;;;3.15;2.42;;;20.90;62.50;;;;;;4977059;28;20061;-84
2021/07/19 05:17:47;;;;;;;3.63;2.47;;;20.90;62.50;;;;;;4960597;28;20098;-84
2021/07/19 05:20:21;;;;;;;3.03;2.05;;;20.90;62.60;;;;;;4943965;28;20141;-83
2021/07/19 05:22:54;;;;;;;4.25;2.80;;;20.90;62.80;;;;;;4945027;28;20031;-83
2021/07/19 05:25:25;;;;;;;3.75;2.35;;;20.90;62.80;;;;;;4976108;28;20072;-82
2021/07/19 05:27:58;;;;;;;3.78;2.33;;;20.90;62.80;;;;;;4944181;28;20046;-84
2021/07/19 05:30:27;;;;;;;3.60;2.30;;;20.80;62.70;;;;;;4975837;28;20031;-84
2021/07/19 05:32:54;;;;;;;2.38;1.98;;;20.80;62.80;;;;;;4959859;28;20371;-83
2021/07/19 05:35:20;;;;;;;3.38;2.38;;;20.80;62.80;;;;;;4959819;28;20031;-83
2021/07/19 05:37:47;;;;;;;3.22;2.35;;;20.80;62.80;;;;;;4977026;28;20039;-84
2021/07/19 05:40:16;;;;;;;3.33;2.45;;;20.80;62.90;;;;;;4960262;28;20034;-84
2021/07/19 05:42:42;;;;;;;3.45;2.38;;;20.90;63.00;;;;;;4960707;28;20058;-84
2021/07/19 05:45:10;;;;;;;4.50;2.38;;;20.90;63.00;;;;;;4976831;28;20451;-82
2021/07/19 05:47:37;;;;;;;3.10;2.20;;;20.80;63.00;;;;;;4959812;28;20027;-82
2021/07/19 05:50:07;;;;;;;2.85;2.17;;;20.90;63.10;;;;;;4975629;28;20089;-84
2021/07/19 05:52:33;;;;;;;3.83;2.38;;;20.90;63.20;;;;;;4960467;28;20434;-84
2021/07/19 05:55:01;;;;;;;3.90;2.53;;;20.90;63.80;;;;;;4975845;28;20027;-84
2021/07/19 05:57:28;;;;;;;3.60;2.42;;;20.90;63.20;;;;;;4959511;28;20083;-83
2021/07/19 05:59:56;;;;;;;3.03;2.15;;;20.90;63.20;;;;;;4976930;28;20073;-90
2021/07/19 06:02:28;;;;;;;3.22;2.13;;;20.90;63.30;;;;;;4960525;28;20026;-84
2021/07/19 06:04:55;;;;;;;2.97;2.13;;;20.90;63.30;;;;;;4975951;28;20045;-84
2021/07/19 06:07:21;;;;;;;3.05;2.20;;;21.00;63.40;;;;;;4960337;28;20374;-84
2021/07/19 06:09:47;;;;;;;3.53;2.33;;;20.90;63.30;;;;;;4961011;28;20375;-85
2021/07/19 06:12:14;;;;;;;4.13;2.50;;;21.00;63.50;;;;;;4977485;28;20107;-85
2021/07/19 06:14:40;;;;;;;3.58;2.38;;;21.00;63.50;;;;;;4943775;28;20039;-84
2021/07/19 06:17:06;;;;;;;3.40;2.28;;;21.00;63.40;;;;;;4959065;28;20027;-84
2021/07/19 06:19:32;;;;;;;3.55;2.33;;;21.00;63.40;;;;;;4959684;28;20074;-85
2021/07/19 06:21:58;;;;;;;3.08;2.17;;;21.00;63.40;;;;;;4959595;28;20039;-82
2021/07/19 06:24:25;;;;;;;5.05;2.75;;;21.10;63.50;;;;;;4975012;28;20030;-83
2021/07/19 06:26:51;;;;;;;3.90;2.47;;;21.10;63.50;;;;;;4959153;28;20471;-83
2021/07/19 06:29:17;;;;;;;3.75;2.53;;;21.10;63.40;;;;;;4958845;28;20077;-82
2021/07/19 06:31:43;;;;;;;3.97;2.50;;;21.10;63.40;;;;;;4958862;28;20050;-82
2021/07/19 06:34:09;;;;;;;3.78;2.50;;;21.10;63.50;;;;;;4959249;28;20069;-82
2021/07/19 06:36:35;;;;;;;4.07;2.60;;;21.20;63.40;;;;;;4958613;28;20383;-82
2021/07/19 06:39:04;;;;;;;4.22;2.65;;;21.20;63.40;;;;;;4958142;28;20105;-82
2021/07/19 06:41:30;;;;;;;4.00;2.70;;;21.20;63.40;;;;;;4958282;28;20026;-81
2021/07/19 06:43:56;;;;;;;3.83;2.45;;;21.20;63.40;;;;;;4975863;28;20023;-83
2021/07/19 06:46:22;;;;;;;4.22;2.80;;;21.20;63.40;;;;;;4974261;28;20030;-82
2021/07/19 06:48:47;;;;;;;3.78;2.65;;;21.30;63.40;;;;;;4974607;28;20094;-83
2021/07/19 06:51:13;;;;;;;3.60;2.53;;;21.30;63.40;;;;;;4974381;28;20460;-82
2021/07/19 06:53:39;;;;;;;3.65;2.78;;;21.30;63.40;;;;;;4974044;28;20035;-82
2021/07/19 06:56:05;;;;;;;4.53;3.00;;;21.30;63.40;;;;;;4958839;28;20027;-82
2021/07/19 06:58:31;;;;;;;4.90;3.17;;;21.30;63.40;;;;;;4974227;28;20035;-82
2021/07/19 07:00:56;;;;;;;5.30;3.03;;;21.40;63.50;;;;;;4958851;28;20075;-83
2021/07/19 07:03:22;;;;;;;4.30;3.10;;;21.40;63.50;;;;;;4974889;28;20122;-82
2021/07/19 07:05:48;;;;;;;4.93;3.15;;;21.40;63.50;;;;;;4958264;28;20485;-83
2021/07/19 07:08:13;;;;;;;4.15;2.90;;;21.40;63.40;;;;;;4974411;28;20072;-83
2021/07/19 07:10:39;;;;;;;4.18;2.78;;;21.40;63.40;;;;;;4974120;28;20035;-82
2021/07/19 07:13:11;;;;;;;3.05;2.45;;;21.50;63.40;;;;;;4974105;28;20034;-82
2021/07/19 07:15:40;;;;;;;4.35;2.88;;;21.50;63.40;;;;;;4974183;28;20031;-83
2021/07/19 07:18:07;;;;;;;4.13;2.85;;;21.60;63.50;;;;;;4957849;28;20033;-83
2021/07/19 07:20:33;;;;;;;4.15;2.95;;;21.50;63.40;;;;;;4957384;28;20109;-83
2021/07/19 07:22:59;;;;;;;4.32;2.80;;;21.60;63.40;;;;;;4974174;28;20033;-83
2021/07/19 07:25:25;;;;;;;4.30;2.65;;;21.60;63.40;;;;;;4958048;28;20031;-83
2021/07/19 07:27:51;;;;;;;4.53;2.60;;;21.60;63.40;;;;;;4958011;28;20038;-83
2021/07/19 07:30:17;;;;;;;4.13;2.83;;;21.70;63.50;;;;;;4973952;28;20365;-85
2021/07/19 07:32:43;;;;;;;4.88;3.22;;;21.70;63.50;;;;;;4974711;28;20384;-83
2021/07/19 07:35:10;;;;;;;4.20;3.22;;;21.70;63.40;;;;;;4957876;28;20034;-82
2021/07/19 07:37:39;;;;;;;5.20;2.88;;;21.70;63.40;;;;;;4957555;28;20031;-83
2021/07/19 07:40:08;;;;;;;4.10;2.78;;;21.70;63.40;;;;;;4957752;28;20388;-82
2021/07/19 07:42:34;;;;;;;4.95;2.80;;;21.80;63.40;;;;;;4974272;28;20038;-82
2021/07/19 07:45:00;;;;;;;4.03;2.88;;;21.80;63.30;;;;;;4973391;28;20030;-82
2021/07/19 07:47:26;;;;;;;4.40;2.85;;;21.80;63.30;;;;;;4957874;28;20034;-81
2021/07/19 07:49:52;;;;;;;4.03;2.75;;;21.90;63.40;;;;;;4941371;28;20571;-81
2021/07/19 07:52:19;;;;;;;3.83;2.67;;;21.90;63.30;;;;;;4959018;28;20535;-82
2021/07/19 07:54:45;;;;;;;4.43;3.10;;;21.90;63.30;;;;;;4978685;28;20038;-81
2021/07/19 07:57:12;;;;;;;4.15;2.80;;;22.00;63.40;;;;;;4961434;28;20099;-82
2021/07/19 07:59:38;;;;;;;4.55;2.88;;;21.90;63.30;;;;;;4977485;28;20383;-82
2021/07/19 08:02:05;;;;;;;4.03;2.90;;;22.00;63.30;;;;;;4961339;28;20026;-81
2021/07/19 08:04:31;;;;;;;3.75;2.72;;;22.00;63.20;;;;;;4978234;28;20033;-81
2021/07/19 08:06:59;;;;;;;4.43;3.00;;;22.00;63.10;;;;;;4961678;28;20082;-82
2021/07/19 08:09:26;;;;;;;3.88;2.67;;;22.10;63.10;;;;;;4961234;28;20034;-81
2021/07/19 08:11:52;;;;;;;4.35;2.90;;;22.10;63.10;;;;;;4961216;28;20026;-81
2021/07/19 08:14:18;;;;;;;4.22;2.90;;;22.10;63.10;;;;;;4961229;28;20040;-81
2021/07/19 08:16:44;;;;;;;4.10;2.90;;;22.20;63.00;;;;;;4960936;28;20033;-80
2021/07/19 08:19:12;;;;;;;4.97;2.97;;;22.20;63.00;;;;;;4976841;28;20042;-82
2021/07/19 08:21:39;;;;;;;4.63;2.65;;;22.20;62.90;;;;;;4960398;28;20118;-82
2021/07/19 08:24:06;;;;;;;4.25;2.92;;;22.30;62.90;;;;;;4960886;28;20035;-83
2021/07/19 08:26:32;;;;;;;5.15;3.05;;;22.30;62.90;;;;;;4960903;28;20387;-81
2021/07/19 08:28:58;;;;;;;4.68;3.10;;;22.30;62.80;;;;;;4960995;28;20129;-82
2021/07/19 08:31:25;;;;;;;4.60;2.90;;;22.30;62.80;;;;;;4961011;28;20078;-81
2021/07/19 08:33:51;;;;;;;4.70;3.08;;;22.40;62.80;;;;;;4961088;28;20034;-82
2021/07/19 08:36:18;;;;;;;4.18;2.80;;;22.40;62.70;;;;;;4960730;28;20467;-81
2021/07/19 08:38:44;;;;;;;4.25;2.95;;;22.40;62.70;;;;;;4960506;28;20043;-81
2021/07/19 08:41:12;;;;;;;4.97;3.40;;;22.50;62.60;;;;;;4960599;28;20097;-81
2021/07/19 08:43:39;;;;;;;4.88;3.20;;;22.50;62.50;;;;;;4944610;28;20018;-81
2021/07/19 08:46:06;;;;;;;3.95;2.63;;;22.50;62.50;;;;;;4961266;28;20035;-83
2021/07/19 08:48:33;;;;;;;4.65;3.05;;;22.60;62.50;;;;;;4976597;28;20062;-80
2021/07/19 08:51:00;;;;;;;4.72;3.22;;;22.60;62.40;;;;;;4976468;28;20027;-83
2021/07/19 08:53:27;;;;;;;5.03;3.25;;;22.60;62.40;;;;;;4960208;28;20031;-82
2021/07/19 08:55:56;;;;;;;6.30;3.60;;;22.70;62.40;;;;;;4976257;28;20023;-82
2021/07/19 08:58:23;;;;;;;4.78;3.42;;;22.70;62.30;;;;;;4976306;28;20038;-84
2021/07/19 09:00:52;;;;;;;4.72;3.30;;;22.70;62.30;;;;;;4960309;28;20026;-83
2021/07/19 09:03:17;;;;;;;4.63;2.97;;;22.70;62.20;;;;;;4960559;28;20042;-82
2021/07/19 09:05:43;;;;;;;4.68;2.95;;;22.80;62.20;;;;;;4960527;28;20030;-84
2021/07/19 09:08:09;;;;;;;4.75;3.55;;;22.80;62.20;;;;;;4961050;28;20070;-84
2021/07/19 09:10:35;;;;;;;4.95;3.10;;;22.80;62.20;;;;;;4960187;28;20023;-82
2021/07/19 09:13:01;;;;;;;4.88;3.30;;;22.90;62.20;;;;;;4961381;28;20472;-82
2021/07/19 09:15:30;;;;;;;4.63;3.35;;;22.90;62.20;;;;;;4961238;28;20085;-84
2021/07/19 09:17:56;;;;;;;4.88;3.38;;;22.90;62.20;;;;;;4977586;28;20054;-83
2021/07/19 09:20:28;;;;;;;4.15;2.92;;;22.90;62.10;;;;;;4959885;28;20031;-82
2021/07/19 09:22:54;;;;;;;4.85;3.42;;;23.00;62.20;;;;;;4943993;28;20387;-82
2021/07/19 09:25:21;;;;;;;4.43;3.10;;;22.90;62.10;;;;;;4976193;28;20035;-82
2021/07/19 09:27:57;;;;;;;4.55;3.30;;;23.00;62.10;;;;;;4960176;28;20058;-82
2021/07/19 09:30:27;;;;;;;5.38;3.50;;;23.00;62.20;;;;;;4977059;28;20038;-83
2021/07/19 09:33:07;;;;;;;5.07;3.45;;;23.00;62.10;;;;;;4977190;28;20493;-81
2021/07/19 09:35:41;;;;;;;5.20;3.33;;;23.00;62.20;;;;;;4976920;28;20035;-83
2021/07/19 09:38:12;;;;;;;4.65;3.33;;;23.10;62.10;;;;;;4959530;28;20046;-82
2021/07/19 09:40:40;;;;;;;5.10;3.33;;;23.10;62.10;;;;;;4959807;28;20449;-82
2021/07/19 09:43:16;;;;;;;4.40;3.25;;;23.10;62.10;;;;;;4959228;28;20023;-83
2021/07/19 09:45:42;;;;;;;4.55;2.90;;;23.10;62.10;;;;;;4959408;28;20507;-83
2021/07/19 09:48:09;;;;;;;4.05;2.83;;;23.10;62.00;;;;;;4959568;28;20023;-82
2021/07/19 09:50:39;;;;;;;4.30;3.20;;;23.20;62.10;;;;;;4976734;28;20026;-83
2021/07/19 09:53:05;;;;;;;4.35;3.35;;;23.20;62.10;;;;;;4959839;28;20031;-83
2021/07/19 09:55:31;;;;;;;4.60;3.25;;;23.30;62.10;;;;;;4976859;28;20463;-83
2021/07/19 09:57:59;;;;;;;5.03;3.17;;;23.30;62.00;;;;;;4961033;28;20041;-83
2021/07/19 10:00:25;;;;;;;4.55;3.20;;;23.30;62.00;;;;;;4960349;28;20098;-83
2021/07/19 10:02:51;;;;;;;5.18;3.45;;;23.40;62.10;;;;;;4960350;28;20477;-83
2021/07/19 10:05:29;;;;;;;4.80;3.03;;;23.40;62.00;;;;;;4975446;28;20062;-83
2021/07/19 10:07:56;;;;;;;5.05;3.65;;;23.40;62.10;;;;;;4975501;28;20039;-82
2021/07/19 10:10:36;;;;;;;5.22;3.30;;;23.50;62.00;;;;;;4959002;28;20031;-83
2021/07/19 10:13:04;;;;;;;4.50;3.30;;;23.50;62.00;;;;;;4975351;28;20519;-85
2021/07/19 10:15:31;;;;;;;4.32;3.22;;;23.60;62.00;;;;;;4958199;28;20050;-83
2021/07/19 10:17:59;;;;;;;5.47;3.17;;;23.60;61.90;;;;;;4975450;28;20121;-86
2021/07/19 10:20:25;;;;;;;5.70;3.60;;;23.70;62.00;;;;;;4977316;28;20031;-85
2021/07/19 10:22:51;;;;;;;5.38;3.47;;;23.60;61.90;;;;;;4959374;28;20051;-83
2021/07/19 10:25:17;;;;;;;4.80;3.33;;;23.70;61.90;;;;;;4958674;28;20046;-83
2021/07/19 10:27:44;;;;;;;5.15;3.38;;;23.80;61.90;;;;;;4975147;28;20031;-80
2021/07/19 10:30:11;;;;;;;4.65;3.35;;;23.80;62.50;;;;;;4958689;28;20058;-80
2021/07/19 10:32:37;;;;;;;4.60;3.08;;;23.80;61.90;;;;;;4975932;28;20026;-80
2021/07/19 10:35:05;;;;;;;5.68;3.28;;;23.80;61.70;;;;;;4974910;28;20033;-82
2021/07/19 10:37:54;;;;;;;4.10;3.10;;;23.90;61.80;;;;;;4958559;28;20592;-82
2021/07/19 10:40:32;;;;;;;4.20;3.10;;;23.90;61.80;;;;;;4958584;28;20035;-81
2021/07/19 10:43:26;;;;;;;4.25;3.10;;;24.00;61.80;;;;;;4976379;28;20082;-81
2021/07/19 10:45:58;;;;;;;4.47;3.17;;;24.00;61.80;;;;;;4956848;28;20495;-84
2021/07/19 10:48:26;;;;;;;5.07;3.33;;;24.10;61.60;;;;;;4942736;28;20042;-82
2021/07/19 10:50:52;;;;;;;4.60;3.30;;;24.20;61.60;;;;;;4958371;28;20077;-81
2021/07/19 10:53:24;;;;;;;4.70;3.45;;;24.20;61.50;;;;;;4975497;28;20035;-81
2021/07/19 10:56:04;;;;;;;4.70;3.40;;;24.20;61.50;;;;;;4958959;28;20026;-81
2021/07/19 10:58:49;;;;;;;4.85;3.30;;;24.30;61.60;;;;;;4975689;28;20038;-80
2021/07/19 11:01:27;;;;;;;4.35;3.15;;;24.40;61.50;;;;;;4974265;28;20106;-83
2021/07/19 11:03:59;;;;;;;4.82;3.25;;;24.40;61.30;;;;;;4975503;28;20118;-83
2021/07/19 11:06:35;;;;;;;5.40;3.60;;;24.50;61.30;;;;;;4957920;28;20114;-80
2021/07/19 11:09:06;;;;;;;5.30;3.50;;;24.60;61.30;;;;;;4974605;28;20034;-79
2021/07/19 11:11:34;;;;;;;4.10;2.95;;;24.60;61.20;;;;;;4975353;28;20023;-80
2021/07/19 11:14:21;;;;;;;4.60;3.40;;;24.70;61.20;;;;;;4958040;28;20042;-83
2021/07/19 11:16:52;;;;;;;4.93;3.47;;;24.70;61.20;;;;;;4958258;28;20042;-80
2021/07/19 11:19:36;;;;;;;5.10;3.15;;;24.70;61.10;;;;;;4975156;28;20058;-82
2021/07/19 11:22:23;;;;;;;4.13;3.17;;;24.80;61.10;;;;;;4957647;28;20046;-80
2021/07/19 11:25:11;;;;;;;6.32;3.88;;;24.80;61.20;;;;;;4958263;28;20085;-80
2021/07/19 11:27:39;;;;;;;3.95;3.00;;;24.90;61.00;;;;;;4956945;28;20047;-80
2021/07/19 11:30:17;;;;;;;4.72;3.53;;;24.90;61.00;;;;;;4957837;28;20035;-80
2021/07/19 11:32:43;;;;;;;4.25;3.17;;;24.90;61.10;;;;;;4973826;28;20035;-81
2021/07/19 11:35:12;;;;;;;4.85;3.45;;;25.00;61.10;;;;;;4973795;28;20030;-81
2021/07/19 11:37:41;;;;;;;4.85;3.40;;;25.00;61.20;;;;;;4973653;28;20062;-82
2021/07/19 11:40:09;;;;;;;4.22;3.20;;;25.10;61.20;;;;;;4958110;28;20023;-83
2021/07/19 11:42:43;;;;;;;5.18;3.60;;;25.10;61.00;;;;;;4973577;28;20467;-83
2021/07/19 11:45:18;;;;;;;4.68;3.30;;;25.10;61.00;;;;;;4957892;28;20084;-83
2021/07/19 11:47:51;;;;;;;5.53;3.85;;;25.20;61.10;;;;;;4957642;28;20027;-83
2021/07/19 11:50:23;;;;;;;4.60;3.55;;;25.20;61.10;;;;;;4957534;28;20034;-82
2021/07/19 11:52:52;;;;;;;4.47;3.35;;;25.20;61.00;;;;;;4957612;28;20070;-83
2021/07/19 11:55:20;;;;;;;4.90;3.60;;;25.30;61.20;;;;;;4957656;28;20026;-82
2021/07/19 11:57:53;;;;;;;5.20;3.80;;;25.30;61.00;;;;;;4973511;28;20034;-82
2021/07/19 12:00:37;;;;;;;5.35;3.72;;;25.40;61.10;;;;;;4974325;28;20033;-82
2021/07/19 12:03:02;;;;;;;5.22;3.80;;;25.40;61.10;;;;;;4957508;28;20045;-83
2021/07/19 12:05:29;;;;;;;4.65;3.40;;;25.40;61.00;;;;;;4957286;28;20027;-83
2021/07/19 12:08:02;;;;;;;5.13;3.80;;;25.50;60.90;;;;;;4974263;28;20098;-83
2021/07/19 12:10:29;;;;;;;5.80;4.15;;;25.50;60.90;;;;;;4973738;28;20486;-82
2021/07/19 12:12:55;;;;;;;5.20;3.75;;;25.60;60.90;;;;;;4974551;28;20034;-82
2021/07/19 12:15:21;;;;;;;4.63;3.47;;;25.60;61.00;;;;;;4957284;28;20039;-82
2021/07/19 12:17:54;;;;;;;5.60;4.15;;;25.60;61.00;;;;;;4956948;28;20391;-83
2021/07/19 12:20:25;;;;;;;5.95;4.13;;;25.60;61.00;;;;;;4957228;28;20077;-81
2021/07/19 12:22:55;;;;;;;5.68;4.38;;;25.70;61.10;;;;;;4975124;28;20487;-82
2021/07/19 12:25:21;;;;;;;5.18;3.92;;;25.70;61.00;;;;;;4956981;28;20447;-81
2021/07/19 12:28:00;;;;;;;5.18;3.78;;;25.70;60.90;;;;;;4974892;28;20046;-82
2021/07/19 12:30:28;;;;;;;5.72;4.05;;;25.80;60.90;;;;;;4972772;28;20031;-82
2021/07/19 12:32:53;;;;;;;5.28;4.00;;;25.80;60.80;;;;;;4972904;28;20322;-83
2021/07/19 12:35:24;;;;;;;5.60;3.85;;;25.80;60.70;;;;;;4973187;28;20047;-81
2021/07/19 12:37:58;;;;;;;5.78;4.07;;;25.90;60.70;;;;;;4957967;28;20043;-82
2021/07/19 12:40:27;;;;;;;5.90;4.20;;;25.90;60.70;;;;;;4961509;28;20031;-79
2021/07/19 12:42:54;;;;;;;7.03;4.50;;;26.00;60.70;;;;;;4976609;28;20454;-77
2021/07/19 12:45:20;;;;;;;5.07;3.85;;;25.90;60.60;;;;;;4960414;28;20094;-77
2021/07/19 12:47:48;;;;;;;5.80;4.53;;;26.00;60.60;;;;;;4976416;28;20078;-78
2021/07/19 12:50:14;;;;;;;6.00;4.22;;;26.00;60.50;;;;;;4960544;28;20419;-76
2021/07/19 12:52:40;;;;;;;6.38;4.22;;;26.00;60.40;;;;;;4977009;28;20039;-77
2021/07/19 12:55:11;;;;;;;5.57;4.07;;;26.00;60.40;;;;;;4960234;28;20061;-79
2021/07/19 12:57:41;;;;;;;6.05;4.38;;;26.00;60.40;;;;;;4976917;28;20361;-78